sensor_id;sensor_type;location;lat;lon;timestamp;temperature;humidity
11423;DHT22;5768;51.476;7.210;2023-02-16T00:05:00;8.80;13.90
11423;DHT22;5768;51.476;7.210;2023-02-16T00:10:03;8.70;13.90
11423;DHT22;5768;51.476;7.210;2023-02-16T00:15:16;8.70;13.90
11423;DHT22;5768;51.476;7.210;2023-02-16T00:20:19;8.60;13.90
11423;DHT22;5768;51.476;7.210;2023-02-16T00:25:21;8.60;13.90
11423;DHT22;5768;51.476;7.210;2023-02-16T00:30:25;8.50;14.00
11423;DHT22;5768;51.476;7.210;2023-02-16T00:35:27;8.40;14.00
11423;DHT22;5768;51.476;7.210;2023-02-16T00:40:29;8.40;14.00
11423;DHT22;5768;51.476;7.210;2023-02-16T00:45:36;8.30;14.10
11423;DHT22;5768;51.476;7.210;2023-02-16T00:50:39;8.30;14.10
11423;DHT22;5768;51.476;7.210;2023-02-16T00:55:42;8.20;14.10
11423;DHT22;5768;51.476;7.210;2023-02-16T01:00:48;8.20;14.20
11423;DHT22;5768;51.476;7.210;2023-02-16T01:05:52;8.20;14.10
11423;DHT22;5768;51.476;7.210;2023-02-16T01:11:23;8.20;14.10
11423;DHT22;5768;51.476;7.210;2023-02-16T01:16:34;8.20;14.10
11423;DHT22;5768;51.476;7.210;2023-02-16T01:21:39;8.10;14.10
11423;DHT22;5768;51.476;7.210;2023-02-16T01:26:43;8.00;14.10
11423;DHT22;5768;51.476;7.210;2023-02-16T01:31:50;8.10;14.10
11423;DHT22;5768;51.476;7.210;2023-02-16T01:36:52;8.00;14.10
11423;DHT22;5768;51.476;7.210;2023-02-16T01:42:15;8.10;14.00
11423;DHT22;5768;51.476;7.210;2023-02-16T01:47:36;8.00;14.00
11423;DHT22;5768;51.476;7.210;2023-02-16T01:52:43;8.00;14.00
11423;DHT22;5768;51.476;7.210;2023-02-16T01:57:57;8.00;14.00
11423;DHT22;5768;51.476;7.210;2023-02-16T02:03:04;8.00;14.00
11423;DHT22;5768;51.476;7.210;2023-02-16T02:08:35;8.10;14.00
11423;DHT22;5768;51.476;7.210;2023-02-16T02:13:45;8.00;14.00
11423;DHT22;5768;51.476;7.210;2023-02-16T02:18:54;8.00;14.00
11423;DHT22;5768;51.476;7.210;2023-02-16T02:24:14;8.10;14.00
11423;DHT22;5768;51.476;7.210;2023-02-16T02:30:26;7.90;14.00
11423;DHT22;5768;51.476;7.210;2023-02-16T02:35:47;7.80;14.00
11423;DHT22;5768;51.476;7.210;2023-02-16T02:40:59;7.80;14.00
11423;DHT22;5768;51.476;7.210;2023-02-16T02:46:10;7.80;13.90
11423;DHT22;5768;51.476;7.210;2023-02-16T02:51:17;7.80;13.90
11423;DHT22;5768;51.476;7.210;2023-02-16T02:56:33;7.80;13.90
11423;DHT22;5768;51.476;7.210;2023-02-16T03:01:57;7.80;13.90
11423;DHT22;5768;51.476;7.210;2023-02-16T03:07:04;7.90;13.80
11423;DHT22;5768;51.476;7.210;2023-02-16T03:12:08;7.70;13.80
11423;DHT22;5768;51.476;7.210;2023-02-16T03:17:34;7.70;13.80
11423;DHT22;5768;51.476;7.210;2023-02-16T03:22:56;7.80;13.80
11423;DHT22;5768;51.476;7.210;2023-02-16T03:28:19;7.80;13.80
11423;DHT22;5768;51.476;7.210;2023-02-16T03:33:43;7.80;13.80
11423;DHT22;5768;51.476;7.210;2023-02-16T03:38:48;7.80;13.80
11423;DHT22;5768;51.476;7.210;2023-02-16T03:43:51;7.80;13.80
11423;DHT22;5768;51.476;7.210;2023-02-16T03:48:55;7.70;13.80
11423;DHT22;5768;51.476;7.210;2023-02-16T03:53:57;7.70;13.80
11423;DHT22;5768;51.476;7.210;2023-02-16T03:58:59;7.80;13.70
11423;DHT22;5768;51.476;7.210;2023-02-16T04:04:03;7.90;13.70
11423;DHT22;5768;51.476;7.210;2023-02-16T04:09:05;7.90;13.70
11423;DHT22;5768;51.476;7.210;2023-02-16T04:14:07;7.80;13.70
11423;DHT22;5768;51.476;7.210;2023-02-16T04:19:11;8.00;13.60
11423;DHT22;5768;51.476;7.210;2023-02-16T04:24:13;7.90;13.60
11423;DHT22;5768;51.476;7.210;2023-02-16T04:29:16;7.80;13.60
11423;DHT22;5768;51.476;7.210;2023-02-16T04:34:19;7.90;13.70
11423;DHT22;5768;51.476;7.210;2023-02-16T04:39:21;8.00;13.60
11423;DHT22;5768;51.476;7.210;2023-02-16T04:44:23;7.80;13.60
11423;DHT22;5768;51.476;7.210;2023-02-16T04:49:27;7.80;13.60
11423;DHT22;5768;51.476;7.210;2023-02-16T04:54:29;7.80;13.60
11423;DHT22;5768;51.476;7.210;2023-02-16T04:59:33;7.80;13.60
11423;DHT22;5768;51.476;7.210;2023-02-16T05:04:37;7.90;13.60
11423;DHT22;5768;51.476;7.210;2023-02-16T05:09:42;7.90;13.60
11423;DHT22;5768;51.476;7.210;2023-02-16T05:14:47;8.00;13.60
11423;DHT22;5768;51.476;7.210;2023-02-16T05:19:55;7.90;13.70
11423;DHT22;5768;51.476;7.210;2023-02-16T05:24:58;7.80;13.70
11423;DHT22;5768;51.476;7.210;2023-02-16T05:30:00;7.80;13.70
11423;DHT22;5768;51.476;7.210;2023-02-16T05:35:04;7.80;13.70
11423;DHT22;5768;51.476;7.210;2023-02-16T05:40:08;7.60;13.70
11423;DHT22;5768;51.476;7.210;2023-02-16T05:45:11;7.70;13.90
11423;DHT22;5768;51.476;7.210;2023-02-16T05:50:14;7.70;13.90
11423;DHT22;5768;51.476;7.210;2023-02-16T05:55:17;7.80;14.10
11423;DHT22;5768;51.476;7.210;2023-02-16T06:00:19;7.70;14.00
11423;DHT22;5768;51.476;7.210;2023-02-16T06:05:23;7.80;13.80
11423;DHT22;5768;51.476;7.210;2023-02-16T06:10:25;7.90;13.80
11423;DHT22;5768;51.476;7.210;2023-02-16T06:15:27;7.80;13.80
11423;DHT22;5768;51.476;7.210;2023-02-16T06:20:31;7.90;13.80
11423;DHT22;5768;51.476;7.210;2023-02-16T06:25:33;8.10;13.90
11423;DHT22;5768;51.476;7.210;2023-02-16T06:30:36;8.10;14.10
11423;DHT22;5768;51.476;7.210;2023-02-16T06:35:40;8.20;13.70
11423;DHT22;5768;51.476;7.210;2023-02-16T06:40:42;8.30;13.60
11423;DHT22;5768;51.476;7.210;2023-02-16T06:45:45;8.40;13.60
11423;DHT22;5768;51.476;7.210;2023-02-16T06:50:50;8.60;13.50
11423;DHT22;5768;51.476;7.210;2023-02-16T06:55:53;8.30;13.40
11423;DHT22;5768;51.476;7.210;2023-02-16T07:00:55;8.50;13.40
11423;DHT22;5768;51.476;7.210;2023-02-16T07:05:59;8.60;13.40
11423;DHT22;5768;51.476;7.210;2023-02-16T07:11:02;8.80;13.30
11423;DHT22;5768;51.476;7.210;2023-02-16T07:16:06;8.90;13.30
11423;DHT22;5768;51.476;7.210;2023-02-16T07:21:10;8.90;13.30
11423;DHT22;5768;51.476;7.210;2023-02-16T07:26:12;8.90;13.30
11423;DHT22;5768;51.476;7.210;2023-02-16T07:31:15;9.20;13.20
11423;DHT22;5768;51.476;7.210;2023-02-16T07:36:19;9.00;13.20
11423;DHT22;5768;51.476;7.210;2023-02-16T07:41:22;9.20;13.10
11423;DHT22;5768;51.476;7.210;2023-02-16T07:46:24;9.40;13.10
11423;DHT22;5768;51.476;7.210;2023-02-16T07:51:29;9.50;13.00
11423;DHT22;5768;51.476;7.210;2023-02-16T07:56:33;9.50;12.90
11423;DHT22;5768;51.476;7.210;2023-02-16T08:01:36;9.50;12.90
11423;DHT22;5768;51.476;7.210;2023-02-16T08:06:40;9.70;12.90
11423;DHT22;5768;51.476;7.210;2023-02-16T08:11:43;9.90;12.80
11423;DHT22;5768;51.476;7.210;2023-02-16T08:16:45;9.80;12.70
11423;DHT22;5768;51.476;7.210;2023-02-16T08:21:48;10.20;12.60
11423;DHT22;5768;51.476;7.210;2023-02-16T08:26:51;10.40;12.60
11423;DHT22;5768;51.476;7.210;2023-02-16T08:31:55;10.60;12.40
11423;DHT22;5768;51.476;7.210;2023-02-16T08:36:59;10.60;12.40
11423;DHT22;5768;51.476;7.210;2023-02-16T08:42:01;10.50;12.40
11423;DHT22;5768;51.476;7.210;2023-02-16T08:47:04;10.50;12.40
11423;DHT22;5768;51.476;7.210;2023-02-16T08:52:08;10.80;12.30
11423;DHT22;5768;51.476;7.210;2023-02-16T08:57:11;11.00;12.20
11423;DHT22;5768;51.476;7.210;2023-02-16T09:02:14;11.20;12.20
11423;DHT22;5768;51.476;7.210;2023-02-16T09:07:18;11.50;12.10
11423;DHT22;5768;51.476;7.210;2023-02-16T09:12:21;11.70;12.00
11423;DHT22;5768;51.476;7.210;2023-02-16T09:17:23;11.60;12.00
11423;DHT22;5768;51.476;7.210;2023-02-16T09:22:27;11.70;12.00
11423;DHT22;5768;51.476;7.210;2023-02-16T09:27:30;11.80;12.00
11423;DHT22;5768;51.476;7.210;2023-02-16T09:32:33;12.20;11.90
11423;DHT22;5768;51.476;7.210;2023-02-16T09:37:37;12.30;11.80
11423;DHT22;5768;51.476;7.210;2023-02-16T09:42:52;11.90;11.80
11423;DHT22;5768;51.476;7.210;2023-02-16T09:48:03;12.50;11.80
11423;DHT22;5768;51.476;7.210;2023-02-16T09:53:11;12.30;11.80
11423;DHT22;5768;51.476;7.210;2023-02-16T09:58:22;12.40;11.70
11423;DHT22;5768;51.476;7.210;2023-02-16T10:03:39;12.20;11.80
11423;DHT22;5768;51.476;7.210;2023-02-16T10:08:57;12.20;11.90
11423;DHT22;5768;51.476;7.210;2023-02-16T10:14:15;11.70;11.90
11423;DHT22;5768;51.476;7.210;2023-02-16T10:19:28;11.60;12.10
11423;DHT22;5768;51.476;7.210;2023-02-16T10:24:41;11.50;12.10
11423;DHT22;5768;51.476;7.210;2023-02-16T10:29:56;11.60;12.10
11423;DHT22;5768;51.476;7.210;2023-02-16T10:35:08;11.60;12.10
11423;DHT22;5768;51.476;7.210;2023-02-16T10:40:29;11.40;12.30
11423;DHT22;5768;51.476;7.210;2023-02-16T10:45:43;11.50;12.40
11423;DHT22;5768;51.476;7.210;2023-02-16T10:50:55;11.40;12.40
11423;DHT22;5768;51.476;7.210;2023-02-16T10:56:01;11.70;12.40
11423;DHT22;5768;51.476;7.210;2023-02-16T11:01:36;11.50;12.50
11423;DHT22;5768;51.476;7.210;2023-02-16T11:06:40;11.80;12.70
11423;DHT22;5768;51.476;7.210;2023-02-16T11:11:44;12.10;12.60
11423;DHT22;5768;51.476;7.210;2023-02-16T11:16:46;12.10;12.60
11423;DHT22;5768;51.476;7.210;2023-02-16T11:21:50;12.00;12.70
11423;DHT22;5768;51.476;7.210;2023-02-16T11:27:04;12.00;12.80
11423;DHT22;5768;51.476;7.210;2023-02-16T11:32:09;12.20;12.80
11423;DHT22;5768;51.476;7.210;2023-02-16T11:37:17;12.00;12.90
11423;DHT22;5768;51.476;7.210;2023-02-16T11:42:29;12.10;13.00
11423;DHT22;5768;51.476;7.210;2023-02-16T11:47:36;12.40;12.90
11423;DHT22;5768;51.476;7.210;2023-02-16T11:52:41;12.60;12.90
11423;DHT22;5768;51.476;7.210;2023-02-16T11:57:44;11.90;13.10
11423;DHT22;5768;51.476;7.210;2023-02-16T12:09:08;12.30;13.30
11423;DHT22;5768;51.476;7.210;2023-02-16T12:14:33;12.00;13.70
11423;DHT22;5768;51.476;7.210;2023-02-16T12:19:44;11.90;13.80
11423;DHT22;5768;51.476;7.210;2023-02-16T12:24:56;12.00;14.00
11423;DHT22;5768;51.476;7.210;2023-02-16T12:30:24;12.10;14.00
11423;DHT22;5768;51.476;7.210;2023-02-16T12:35:49;12.00;13.90
11423;DHT22;5768;51.476;7.210;2023-02-16T12:41:04;12.10;13.90
11423;DHT22;5768;51.476;7.210;2023-02-16T12:46:21;12.50;13.80
11423;DHT22;5768;51.476;7.210;2023-02-16T12:51:32;12.30;13.80
11423;DHT22;5768;51.476;7.210;2023-02-16T12:56:41;12.40;13.90
11423;DHT22;5768;51.476;7.210;2023-02-16T13:01:49;12.20;13.90
11423;DHT22;5768;51.476;7.210;2023-02-16T13:06:58;12.70;13.80
11423;DHT22;5768;51.476;7.210;2023-02-16T13:12:09;12.30;14.00
11423;DHT22;5768;51.476;7.210;2023-02-16T13:17:26;12.40;13.90
11423;DHT22;5768;51.476;7.210;2023-02-16T13:22:45;12.40;14.00
11423;DHT22;5768;51.476;7.210;2023-02-16T13:28:12;12.50;14.00
11423;DHT22;5768;51.476;7.210;2023-02-16T13:33:45;12.30;13.90
11423;DHT22;5768;51.476;7.210;2023-02-16T13:39:22;12.10;14.10
11423;DHT22;5768;51.476;7.210;2023-02-16T13:44:38;12.10;14.00
11423;DHT22;5768;51.476;7.210;2023-02-16T13:49:55;12.30;14.00
11423;DHT22;5768;51.476;7.210;2023-02-16T13:55:06;11.90;14.10
11423;DHT22;5768;51.476;7.210;2023-02-16T14:00:27;12.00;14.30
11423;DHT22;5768;51.476;7.210;2023-02-16T14:05:35;12.10;14.20
11423;DHT22;5768;51.476;7.210;2023-02-16T14:11:06;12.00;14.10
11423;DHT22;5768;51.476;7.210;2023-02-16T14:16:24;12.10;14.20
11423;DHT22;5768;51.476;7.210;2023-02-16T14:21:38;12.40;14.10
11423;DHT22;5768;51.476;7.210;2023-02-16T14:26:53;12.30;14.20
11423;DHT22;5768;51.476;7.210;2023-02-16T14:32:03;12.00;14.30
11423;DHT22;5768;51.476;7.210;2023-02-16T14:37:30;11.90;14.40
11423;DHT22;5768;51.476;7.210;2023-02-16T14:42:36;11.90;14.50
11423;DHT22;5768;51.476;7.210;2023-02-16T14:47:53;12.00;14.50
11423;DHT22;5768;51.476;7.210;2023-02-16T14:53:49;12.20;14.30
11423;DHT22;5768;51.476;7.210;2023-02-16T14:59:08;12.70;14.20
11423;DHT22;5768;51.476;7.210;2023-02-16T15:04:29;14.80;13.30
11423;DHT22;5768;51.476;7.210;2023-02-16T15:09:41;16.00;12.70
11423;DHT22;5768;51.476;7.210;2023-02-16T15:14:47;15.80;12.60
11423;DHT22;5768;51.476;7.210;2023-02-16T15:19:53;16.10;12.60
11423;DHT22;5768;51.476;7.210;2023-02-16T15:25:02;15.40;12.70
11423;DHT22;5768;51.476;7.210;2023-02-16T15:30:19;15.70;12.70
11423;DHT22;5768;51.476;7.210;2023-02-16T15:35:33;16.30;12.60
11423;DHT22;5768;51.476;7.210;2023-02-16T15:40:39;16.30;12.50
11423;DHT22;5768;51.476;7.210;2023-02-16T15:45:47;16.40;12.50
11423;DHT22;5768;51.476;7.210;2023-02-16T15:50:54;15.60;12.70
11423;DHT22;5768;51.476;7.210;2023-02-16T15:56:02;14.90;13.20
11423;DHT22;5768;51.476;7.210;2023-02-16T16:01:25;14.80;13.30
11423;DHT22;5768;51.476;7.210;2023-02-16T16:06:37;15.00;13.20
11423;DHT22;5768;51.476;7.210;2023-02-16T16:11:42;14.60;13.30
11423;DHT22;5768;51.476;7.210;2023-02-16T16:16:45;14.10;13.60
11423;DHT22;5768;51.476;7.210;2023-02-16T16:21:50;13.90;13.70
11423;DHT22;5768;51.476;7.210;2023-02-16T16:26:57;13.60;13.70
11423;DHT22;5768;51.476;7.210;2023-02-16T16:32:01;13.60;13.60
11423;DHT22;5768;51.476;7.210;2023-02-16T16:37:06;13.50;13.70
11423;DHT22;5768;51.476;7.210;2023-02-16T16:42:24;13.40;13.70
11423;DHT22;5768;51.476;7.210;2023-02-16T16:47:30;13.30;13.70
11423;DHT22;5768;51.476;7.210;2023-02-16T16:52:39;13.30;13.70
11423;DHT22;5768;51.476;7.210;2023-02-16T16:57:44;13.20;13.70
11423;DHT22;5768;51.476;7.210;2023-02-16T17:02:50;13.30;13.70
11423;DHT22;5768;51.476;7.210;2023-02-16T17:07:52;13.20;13.70
11423;DHT22;5768;51.476;7.210;2023-02-16T17:12:59;13.20;13.60
11423;DHT22;5768;51.476;7.210;2023-02-16T17:18:03;13.30;13.60
11423;DHT22;5768;51.476;7.210;2023-02-16T17:23:06;13.10;13.60
11423;DHT22;5768;51.476;7.210;2023-02-16T17:28:13;13.20;13.50
11423;DHT22;5768;51.476;7.210;2023-02-16T17:33:17;13.10;13.50
11423;DHT22;5768;51.476;7.210;2023-02-16T17:38:21;13.10;13.60
11423;DHT22;5768;51.476;7.210;2023-02-16T17:43:26;13.00;13.50
11423;DHT22;5768;51.476;7.210;2023-02-16T17:48:28;12.80;13.50
11423;DHT22;5768;51.476;7.210;2023-02-16T17:53:31;12.80;13.50
11423;DHT22;5768;51.476;7.210;2023-02-16T17:58:34;12.60;13.60
11423;DHT22;5768;51.476;7.210;2023-02-16T18:03:36;12.60;13.70
11423;DHT22;5768;51.476;7.210;2023-02-16T18:08:44;12.40;14.10
11423;DHT22;5768;51.476;7.210;2023-02-16T18:13:48;12.20;14.30
11423;DHT22;5768;51.476;7.210;2023-02-16T18:18:50;12.30;14.70
11423;DHT22;5768;51.476;7.210;2023-02-16T18:23:52;12.10;15.00
11423;DHT22;5768;51.476;7.210;2023-02-16T18:28:56;12.20;15.20
11423;DHT22;5768;51.476;7.210;2023-02-16T18:33:58;12.20;15.20
11423;DHT22;5768;51.476;7.210;2023-02-16T18:39:00;12.30;15.20
11423;DHT22;5768;51.476;7.210;2023-02-16T18:44:04;11.90;15.60
11423;DHT22;5768;51.476;7.210;2023-02-16T18:49:08;11.50;16.60
11423;DHT22;5768;51.476;7.210;2023-02-16T18:54:10;11.30;18.80
11423;DHT22;5768;51.476;7.210;2023-02-16T18:59:14;11.10;20.70
11423;DHT22;5768;51.476;7.210;2023-02-16T19:04:16;10.70;24.40
11423;DHT22;5768;51.476;7.210;2023-02-16T19:09:18;10.80;25.40
11423;DHT22;5768;51.476;7.210;2023-02-16T19:14:25;10.80;26.10
11423;DHT22;5768;51.476;7.210;2023-02-16T19:19:27;10.70;25.90
11423;DHT22;5768;51.476;7.210;2023-02-16T19:24:30;10.80;26.10
11423;DHT22;5768;51.476;7.210;2023-02-16T19:29:33;10.80;26.10
11423;DHT22;5768;51.476;7.210;2023-02-16T19:34:35;11.00;26.40
11423;DHT22;5768;51.476;7.210;2023-02-16T19:39:37;10.90;26.80
11423;DHT22;5768;51.476;7.210;2023-02-16T19:44:44;10.70;27.50
11423;DHT22;5768;51.476;7.210;2023-02-16T19:49:46;10.30;29.00
11423;DHT22;5768;51.476;7.210;2023-02-16T19:54:48;10.30;82.50
11423;DHT22;5768;51.476;7.210;2023-02-16T19:59:52;10.00;89.50
11423;DHT22;5768;51.476;7.210;2023-02-16T20:04:54;10.30;92.70
11423;DHT22;5768;51.476;7.210;2023-02-16T20:09:56;10.30;87.60
11423;DHT22;5768;51.476;7.210;2023-02-16T20:15:03;10.20;90.90
11423;DHT22;5768;51.476;7.210;2023-02-16T20:20:06;10.20;88.50
11423;DHT22;5768;51.476;7.210;2023-02-16T20:25:09;10.30;86.70
11423;DHT22;5768;51.476;7.210;2023-02-16T20:30:17;10.40;85.80
11423;DHT22;5768;51.476;7.210;2023-02-16T20:35:21;10.50;85.10
11423;DHT22;5768;51.476;7.210;2023-02-16T20:40:24;10.50;82.00
11423;DHT22;5768;51.476;7.210;2023-02-16T20:45:30;10.30;82.50
11423;DHT22;5768;51.476;7.210;2023-02-16T20:50:35;10.40;81.90
11423;DHT22;5768;51.476;7.210;2023-02-16T20:55:37;10.40;32.80
11423;DHT22;5768;51.476;7.210;2023-02-16T21:00:43;10.30;28.20
11423;DHT22;5768;51.476;7.210;2023-02-16T21:05:45;10.30;29.30
11423;DHT22;5768;51.476;7.210;2023-02-16T21:10:47;10.40;33.20
11423;DHT22;5768;51.476;7.210;2023-02-16T21:15:50;10.50;29.30
11423;DHT22;5768;51.476;7.210;2023-02-16T21:20:53;10.40;86.50
11423;DHT22;5768;51.476;7.210;2023-02-16T21:25:56;10.30;86.90
11423;DHT22;5768;51.476;7.210;2023-02-16T21:31:04;10.30;89.70
11423;DHT22;5768;51.476;7.210;2023-02-16T21:36:09;10.40;86.70
11423;DHT22;5768;51.476;7.210;2023-02-16T21:41:14;10.40;85.10
11423;DHT22;5768;51.476;7.210;2023-02-16T21:46:31;10.30;91.40
11423;DHT22;5768;51.476;7.210;2023-02-16T21:51:35;10.40;91.70
11423;DHT22;5768;51.476;7.210;2023-02-16T21:56:40;10.30;91.00
11423;DHT22;5768;51.476;7.210;2023-02-16T22:01:47;10.30;93.20
11423;DHT22;5768;51.476;7.210;2023-02-16T22:06:50;10.10;95.20
11423;DHT22;5768;51.476;7.210;2023-02-16T22:11:54;10.30;96.60
11423;DHT22;5768;51.476;7.210;2023-02-16T22:16:58;10.40;95.80
11423;DHT22;5768;51.476;7.210;2023-02-16T22:22:01;10.40;99.90
11423;DHT22;5768;51.476;7.210;2023-02-16T22:27:03;10.10;99.80
11423;DHT22;5768;51.476;7.210;2023-02-16T22:32:10;10.10;99.90
11423;DHT22;5768;51.476;7.210;2023-02-16T22:37:13;10.30;99.90
11423;DHT22;5768;51.476;7.210;2023-02-16T22:42:15;10.20;99.90
11423;DHT22;5768;51.476;7.210;2023-02-16T22:47:19;10.30;99.90
11423;DHT22;5768;51.476;7.210;2023-02-16T22:52:21;10.40;99.90
11423;DHT22;5768;51.476;7.210;2023-02-16T22:57:23;10.40;99.90
11423;DHT22;5768;51.476;7.210;2023-02-16T23:02:26;10.50;99.90
11423;DHT22;5768;51.476;7.210;2023-02-16T23:07:29;10.50;99.90
11423;DHT22;5768;51.476;7.210;2023-02-16T23:12:31;10.70;99.80
11423;DHT22;5768;51.476;7.210;2023-02-16T23:17:38;10.70;94.50
11423;DHT22;5768;51.476;7.210;2023-02-16T23:22:40;10.50;98.70
11423;DHT22;5768;51.476;7.210;2023-02-16T23:27:42;10.70;98.50
11423;DHT22;5768;51.476;7.210;2023-02-16T23:32:46;10.70;97.00
11423;DHT22;5768;51.476;7.210;2023-02-16T23:37:50;11.00;95.30
11423;DHT22;5768;51.476;7.210;2023-02-16T23:42:52;10.90;91.40
11423;DHT22;5768;51.476;7.210;2023-02-16T23:47:55;11.10;90.90
11423;DHT22;5768;51.476;7.210;2023-02-16T23:52:57;10.90;90.90
11423;DHT22;5768;51.476;7.210;2023-02-16T23:57:59;10.90;88.60
